createdAt,value
2023-04-10T00:03:21.581Z,45.27
2023-04-10T00:08:26.927Z,47.37
2023-04-10T00:13:36.883Z,55.30
2023-04-10T00:19:02.604Z,52.50
2023-04-10T00:24:09.443Z,56.40
2023-04-10T00:29:15.921Z,56.93
2023-04-10T00:34:28.904Z,57.63
2023-04-10T00:39:35.497Z,59.60
2023-04-10T00:44:43.091Z,58.93
2023-04-10T00:49:53.845Z,64.80
2023-04-10T00:55:09.684Z,63.90
2023-04-10T01:00:14.185Z,60.50
2023-04-10T01:05:42.541Z,58.43
2023-04-10T01:10:57.250Z,66.70
2023-04-10T01:16:23.739Z,60.90
2023-04-10T01:21:29.250Z,61.67
2023-04-10T01:27:05.906Z,59.97
2023-04-10T01:32:18.831Z,58.10
2023-04-10T01:37:24.650Z,58.67
2023-04-10T01:42:34.448Z,57.07
2023-04-10T01:47:44.487Z,52.17
2023-04-10T01:52:56.602Z,44.90
2023-04-10T01:58:05.797Z,44.67
2023-04-10T02:03:24.207Z,52.70
2023-04-10T02:09:14.414Z,43.60
2023-04-10T02:19:51.125Z,43.27
2023-04-10T02:24:56.981Z,39.23
2023-04-10T02:30:32.600Z,40.90
2023-04-10T02:35:39.419Z,39.40
2023-04-10T02:41:19.807Z,41.53
2023-04-10T02:46:24.840Z,38.33
2023-04-10T02:51:44.367Z,34.07
2023-04-10T02:57:18.550Z,38.13
2023-04-10T03:08:45.284Z,37.50
2023-04-10T03:13:59.473Z,32.80
2023-04-10T03:19:18.093Z,35.20
2023-04-10T03:24:54.263Z,29.53
2023-04-10T03:30:24.291Z,31.10
2023-04-10T03:35:29.647Z,29.87
2023-04-10T03:40:47.755Z,30.20
2023-04-10T03:46:13.876Z,27.50
2023-04-10T03:51:30.923Z,30.07
2023-04-10T03:56:58.437Z,24.97
2023-04-10T04:07:59.108Z,27.13
2023-04-10T04:13:10.123Z,26.87
2023-04-10T04:18:58.212Z,30.20
2023-04-10T04:24:07.670Z,26.40
2023-04-10T04:29:18.615Z,24.87
2023-04-10T04:34:54.926Z,26.97
2023-04-10T04:40:59.657Z,26.93
2023-04-10T04:46:13.113Z,26.17
2023-04-10T04:51:33.539Z,26.50
2023-04-10T04:56:38.771Z,23.17
2023-04-10T05:07:53.583Z,23.43
2023-04-10T05:13:07.963Z,23.70
2023-04-10T05:18:28.521Z,26.80
2023-04-10T05:24:18.517Z,25.07
2023-04-10T05:35:05.690Z,26.20
2023-04-10T05:40:19.060Z,20.77
2023-04-10T05:45:51.310Z,22.27
2023-04-10T05:51:06.032Z,20.43
2023-04-10T05:56:18.812Z,19.00
2023-04-10T06:01:39.324Z,23.03
2023-04-10T06:07:05.324Z,18.80
2023-04-10T06:12:11.117Z,18.87
2023-04-10T06:17:29.232Z,16.20
2023-04-10T06:22:32.913Z,17.57
2023-04-10T06:27:56.627Z,17.10
2023-04-10T06:33:07.624Z,15.17
2023-04-10T06:38:56.134Z,15.30
2023-04-10T06:44:02.968Z,16.17
2023-04-10T06:49:18.357Z,13.30
2023-04-10T06:54:33.858Z,16.27
2023-04-10T06:59:56.735Z,14.47
2023-04-10T07:05:05.361Z,13.67
2023-04-10T07:10:16.136Z,12.80
2023-04-10T07:15:30.396Z,14.40
2023-04-10T07:21:14.038Z,20.47
2023-04-10T07:26:32.768Z,13.73
2023-04-10T07:31:55.089Z,15.90
2023-04-10T07:37:36.587Z,16.87
2023-04-10T08:01:44.085Z,10.73
2023-04-10T08:12:27.560Z,12.40
2023-04-10T08:17:52.909Z,10.90
2023-04-10T08:23:30.845Z,11.90
2023-04-10T08:35:08.665Z,10.73
2023-04-10T08:46:24.212Z,10.13
2023-04-10T08:52:01.248Z,11.03
2023-04-10T09:03:51.008Z,9.20
2023-04-10T09:14:36.946Z,8.40
2023-04-10T09:25:41.998Z,9.27
2023-04-10T09:30:59.394Z,8.73
2023-04-10T09:36:23.883Z,9.13
2023-04-10T10:06:48.391Z,6.97
2023-04-10T10:12:10.344Z,6.07
2023-04-10T10:17:19.995Z,14.67
2023-04-10T10:29:24.690Z,5.00
2023-04-10T10:34:31.486Z,6.40
2023-04-10T10:40:28.632Z,6.85
2023-04-10T10:52:36.338Z,5.17
2023-04-10T10:59:29.571Z,4.73
2023-04-10T11:04:58.598Z,6.33
2023-04-10T11:21:45.418Z,5.33
2023-04-10T11:52:09.858Z,6.00
2023-04-10T11:57:56.385Z,5.37
2023-04-10T12:03:10.395Z,4.53
2023-04-10T12:21:29.727Z,3.40
2023-04-10T12:27:04.939Z,4.60
2023-04-10T12:32:43.219Z,2.90
2023-04-10T12:38:09.066Z,9.97
2023-04-10T12:49:39.454Z,3.90
2023-04-10T12:56:08.416Z,2.87
2023-04-10T13:29:26.337Z,2.83
2023-04-10T13:46:38.553Z,2.53
2023-04-10T13:53:17.896Z,3.03
2023-04-10T14:10:59.412Z,4.07
2023-04-10T14:29:38.884Z,5.50
2023-04-10T14:35:29.598Z,4.97
2023-04-10T15:11:46.887Z,2.97
2023-04-10T15:16:55.157Z,3.20
2023-04-10T15:28:13.817Z,3.63
2023-04-10T15:33:45.808Z,3.93
2023-04-10T15:53:26.942Z,12.17
2023-04-10T15:57:59.865Z,3.67
2023-04-10T16:17:15.297Z,3.77
2023-04-10T16:22:27.780Z,3.83
2023-04-10T16:33:54.397Z,3.30
2023-04-10T16:38:56.732Z,8.53
2023-04-10T16:44:21.504Z,5.23
2023-04-10T16:50:17.238Z,4.87
2023-04-10T16:55:37.307Z,3.10
2023-04-10T17:06:47.184Z,2.47
2023-04-10T17:12:19.940Z,4.33
2023-04-10T17:23:17.481Z,2.77
2023-04-10T17:34:40.702Z,3.50
2023-04-10T17:39:47.369Z,2.50
2023-04-10T17:45:24.887Z,3.13
2023-04-10T18:22:19.993Z,3.37
2023-04-10T18:27:38.483Z,3.30
2023-04-10T18:33:11.508Z,3.07
2023-04-10T18:39:09.881Z,3.30
2023-04-10T18:49:41.770Z,3.20
2023-04-10T18:55:01.592Z,3.83
2023-04-10T19:00:08.463Z,4.07
2023-04-10T19:05:25.810Z,7.60
2023-04-10T19:10:30.485Z,4.60
2023-04-10T19:15:34.951Z,4.50
2023-04-10T19:20:49.930Z,4.60
2023-04-10T19:31:22.746Z,5.97
2023-04-10T19:36:39.312Z,3.70
2023-04-10T19:41:50.660Z,4.63
2023-04-10T19:46:56.350Z,9.50
2023-04-10T19:52:20.302Z,4.03
2023-04-10T19:57:22.237Z,5.63
2023-04-10T20:02:33.384Z,5.37
2023-04-10T20:08:01.006Z,3.53
2023-04-10T20:13:21.353Z,3.07
2023-04-10T20:18:27.008Z,5.83
2023-04-10T20:23:39.117Z,5.40
2023-04-10T20:29:12.592Z,4.67
2023-04-10T20:34:47.911Z,3.47
2023-04-10T20:40:03.126Z,7.93
2023-04-10T20:45:16.212Z,4.20
2023-04-10T20:50:26.134Z,4.93
2023-04-10T20:55:47.404Z,5.13
2023-04-10T21:01:03.109Z,4.47
2023-04-10T21:06:14.682Z,5.40
2023-04-10T21:11:20.112Z,6.17
2023-04-10T21:16:33.332Z,6.17
2023-04-10T21:21:49.815Z,5.13
2023-04-10T21:26:57.987Z,6.07
2023-04-10T21:32:02.311Z,26.40
2023-04-10T21:42:28.400Z,5.43
2023-04-10T21:47:39.424Z,5.00
2023-04-10T22:04:54.051Z,3.97
2023-04-10T22:09:58.624Z,4.87
2023-04-10T22:20:37.566Z,2.00
2023-04-10T22:26:01.075Z,3.27
2023-04-10T22:31:03.263Z,3.43
2023-04-10T22:36:09.375Z,1.53
2023-04-10T22:41:18.995Z,1.70
2023-04-10T22:46:28.068Z,2.57
2023-04-10T22:51:41.711Z,1.60
2023-04-10T22:56:47.605Z,2.07
2023-04-10T23:02:05.571Z,3.17
2023-04-10T23:12:50.713Z,4.13
2023-04-10T23:17:58.513Z,5.07
2023-04-10T23:28:21.950Z,1.67
2023-04-10T23:33:32.247Z,4.70
2023-04-10T23:38:39.640Z,2.23
2023-04-10T23:43:49.683Z,1.50
2023-04-10T23:48:54.548Z,2.93
2023-04-10T23:54:05.079Z,2.57
2023-04-10T23:59:19.627Z,1.50
